Portada
METAR-TAF:

METAR-TAF

Aeroports :

Tanegashima, Japó

latitud: 30-33N, longitud: 130-57E, altitud: 92 m

Observació

L'informe es va fer fa 10 hores i 26 minuts, a les 09:00 UTC
Vent 12 kt del Sud-Est
Temperatura 27°C
Humitat 89%
Pressió 1011 hPa
Visibilitat 10 km o més
Escasses núvols a una alçada de 600 ft
Núvols disperses a una alçada de 1000 ft
Cel ennuvolat

METAR: RJFG 090900Z 14012KT 9999 FEW006 SCT010 BKN/// 27/25 Q1011

Hora: 04:26 (19:26 UTC)


TAF: manca

Observacions i pronòstics meteorològics de més de 4000 aeroports (METAR i TAF).

Les estacions disponibles són els punts grocs i vermells al mapa.

Posi el ratolí al punt desitjat per veure el nom de l'estació.

Feu clic per veure les observacions i els pronòstics meteorològics.

Per canviar el mapa: feu clic els botons verds amb una creu de color negre per apropar; al botó verd amb un guió per allunyar la imatge; o en les fletxes verdes per a mapes adjacents.


METAR-TAF: